Lytton, Iowa
Current Conditions -  °F | °C
As of 6:15 AM on Monday 26 Jan 2015 (Local Time) from KSLB Reporting Station
Overcast Overcast  
Wind Chill: 24°   Ceiling: 10000
Heat Index: 34°   Visibility: 10mi
Dew Point: 32°   Wind: 15mph
Humidity: 93%   Direction: 220°SW
Pressure: 29.8"   Gusts: NA
Location:  42.42°N, 94.86°W
Report Text: KSLB 261215Z AUTO 22013KT 10SM OVC100 01/M00 A2980 RMK AO2
Loading
Personal Weather Stations






























Interactive Weather Map New forecast layout! Learn more

10-Day Weather Forecast

Advertisements
Track Severe Weather on mobile